Time;durP1;ratioP1;P1;durP2;ratioP2;P2;SDS_P1;SDS_P2;PMS_P1;PMS_P2;Temp;Humidity;BMP_temperature;BMP_pressure;BME280_temperature;BME280_humidity;BME280_pressure;Samples;Min_cycle;Max_cycle;Signal;HPM_P1;HPM_P2
2022/10/31 09:23:32;;;;;;;16.07;11.25;;;;;;;26.12;47.89;100835.23;1855278;76;26886;-66
2022/10/31 09:26:01;;;;;;;15.75;12.00;;;;;;;26.17;47.27;100832.61;1796520;77;25636;-67
2022/10/31 09:28:32;;;;;;;17.87;12.43;;;;;;;26.57;46.50;100829.83;1803406;78;28172;-67
2022/10/31 09:30:58;;;;;;;19.85;17.60;;;;;;;26.78;45.78;100828.12;1794291;78;25731;-67
2022/10/31 09:33:25;;;;;;;22.13;18.00;;;;;;;27.13;45.79;100827.06;1805678;78;25735;-67
2022/10/31 09:35:54;;;;;;;80.97;75.42;;;;;;;27.59;45.17;100836.17;1799304;78;25528;-66
2022/10/31 09:38:23;;;;;;;76.87;71.65;;;;;;;27.94;43.86;100836.98;1798016;78;25333;-66
2022/10/31 09:41:18;;;;;;;75.70;70.65;;;;;;;28.01;43.49;100838.31;1798050;78;28154;-65
2022/10/31 09:44:01;;;;;;;55.50;51.60;;;;;;;28.25;43.10;100835.62;1800434;78;25811;-65
2022/10/31 09:46:53;;;;;;;75.12;69.70;;;;;;;28.48;42.55;100829.33;1796161;78;25341;-67
2022/10/31 09:49:31;;;;;;;50.85;47.38;;;;;;;28.63;41.62;100829.95;1805819;78;25811;-67
2022/10/31 09:52:22;;;;;;;74.85;69.82;;;;;;;28.49;41.03;100826.13;1809019;78;25416;-67
2022/10/31 09:55:06;;;;;;;73.57;68.72;;;;;;;28.83;41.22;100828.65;1770019;80;27491;-67
2022/10/31 09:57:37;;;;;;;76.02;71.12;;;;;;;29.20;40.59;100826.85;1775293;80;25624;-66
2022/10/31 10:00:07;;;;;;;73.35;68.22;;;;;;;29.19;39.40;100828.86;1731786;82;25697;-65
2022/10/31 10:02:47;;;;;;;21.35;12.55;;;;;;;28.97;39.36;100833.98;1733985;82;25711;-67
2022/10/31 10:05:31;;;;;;;18.87;12.55;;;;;;;29.24;39.52;100828.38;1775711;80;25929;-68
2022/10/31 10:08:17;;;;;;;16.40;11.93;;;;;;;29.46;39.45;100825.20;1725062;82;27522;-67
2022/10/31 10:10:51;;;;;;;17.25;12.25;;;;;;;29.80;39.24;100821.40;1775388;80;27383;-67
2022/10/31 10:13:53;;;;;;;19.62;12.15;;;;;;;30.11;38.25;100830.91;1775659;80;25655;-66
2022/10/31 10:16:37;;;;;;;19.70;11.78;;;;;;;30.09;37.55;100822.98;1775554;80;25495;-67
2022/10/31 10:19:48;;;;;;;16.65;11.93;;;;;;;30.20;37.49;100822.73;1751506;80;25551;-66
2022/10/31 10:22:38;;;;;;;16.32;11.15;;;;;;;30.55;37.30;100821.80;1681758;85;29620;-65
2022/10/31 10:25:19;;;;;;;18.82;10.93;;;;;;;30.85;37.15;100820.67;1674503;83;25786;-67
2022/10/31 10:28:08;;;;;;;53.60;49.55;;;;;;;31.11;36.69;100819.46;1672927;85;25674;-63
2022/10/31 10:30:52;;;;;;;17.67;12.25;;;;;;;31.25;36.26;100816.28;1676880;85;26017;-63
2022/10/31 10:33:39;;;;;;;25.27;16.45;;;;;;;31.18;35.83;100817.88;1729365;82;25740;-63
2022/10/31 10:36:11;;;;;;;75.35;69.70;;;;;;;30.95;36.06;100812.48;1679172;83;27532;-63
2022/10/31 10:38:45;;;;;;;56.37;51.80;;;;;;;30.95;35.94;100799.92;1669793;83;27327;-65
2022/10/31 10:41:19;;;;;;;69.77;64.80;;;;;;;30.91;35.66;100795.17;1680849;84;25582;-66
2022/10/31 10:43:48;;;;;;;73.00;68.07;;;;;;;31.37;35.35;100796.61;1670939;84;25819;-66
2022/10/31 10:49:50;;;;;;;13.22;10.25;;;;;;;32.00;34.88;100798.03;1677383;83;27801;-67
2022/10/31 10:52:38;;;;;;;16.02;11.45;;;;;;;31.90;34.41;100791.38;1677220;83;25749;-66
2022/10/31 10:55:15;;;;;;;14.90;11.80;;;;;;;31.70;34.23;100797.91;1683031;84;25745;-66
2022/10/31 10:58:04;;;;;;;16.73;11.08;;;;;;;31.18;33.69;100789.16;1678769;81;25786;-66
2022/10/31 11:00:40;;;;;;;15.63;11.90;;;;;;;30.58;33.58;100796.41;1755839;81;25693;-67
2022/10/31 11:03:08;;;;;;;15.83;11.08;;;;;;;30.14;34.41;100800.77;1755764;81;28015;-66
2022/10/31 11:05:58;;;;;;;14.18;10.78;;;;;;;29.89;34.75;100803.47;1742998;80;25925;-67
2022/10/31 11:08:33;;;;;;;16.85;11.48;;;;;;;29.85;35.05;100803.36;1742823;80;26240;-68
2022/10/31 11:11:30;;;;;;;16.35;11.97;;;;;;;29.65;35.00;100804.75;1758593;79;25855;-66
2022/10/31 11:14:07;;;;;;;18.62;12.50;;;;;;;29.60;35.31;100797.67;1791894;78;25383;-66
2022/10/31 11:16:41;;;;;;;17.07;12.37;;;;;;;29.52;35.34;100797.62;1793409;78;27528;-66
2022/10/31 11:19:21;;;;;;;18.87;12.13;;;;;;;29.43;35.39;100798.97;1817128;77;25716;-66
2022/10/31 11:21:51;;;;;;;19.25;12.65;;;;;;;29.50;35.62;100799.44;1808827;77;25652;-66
2022/10/31 11:24:22;;;;;;;21.30;12.88;;;;;;;29.46;35.27;100796.53;1800095;77;25388;-66
2022/10/31 11:27:12;;;;;;;18.10;12.88;;;;;;;29.37;35.36;100797.91;1806200;77;25564;-67
2022/10/31 11:29:41;;;;;;;17.17;11.60;;;;;;;29.38;35.43;100795.90;1683900;84;28248;-67
2022/10/31 11:32:20;;;;;;;;;;;;;;;29.53;35.76;100793.63;1678975;84;25754;-67
2022/10/31 11:34:51;;;;;;;18.70;11.63;;;;;;;29.61;34.98;100791.67;1644282;85;25770;-67
2022/10/31 11:37:25;;;;;;;14.47;11.38;;;;;;;29.36;35.24;100793.53;1644471;85;25806;-67
2022/10/31 11:39:56;;;;;;;19.40;12.82;;;;;;;29.28;35.54;100788.53;1642579;85;25668;-66
2022/10/31 11:42:30;;;;;;;19.82;11.73;;;;;;;29.26;35.41;100783.38;1613865;88;28429;-66
2022/10/31 11:44:57;;;;;;;14.75;11.57;;;;;;;29.35;35.59;100783.59;1671406;84;25689;-66
2022/10/31 11:47:31;;;;;;;17.62;12.25;;;;;;;29.46;35.50;100784.00;1624503;85;25780;-67
2022/10/31 11:50:01;;;;;;;16.23;12.55;;;;;;;29.46;35.51;100772.27;1653229;85;25750;-66
2022/10/31 11:52:31;;;;;;;20.55;14.70;;;;;;;29.37;35.24;100781.78;1642897;85;25804;-66
2022/10/31 11:58:26;;;;;;;20.52;12.23;;;;;;;29.12;35.60;100780.22;1555290;90;26018;-66
2022/10/31 12:00:56;;;;;;;26.23;12.40;;;;;;;29.22;35.66;100786.23;1560589;91;25788;-66
2022/10/31 12:03:33;;;;;;;17.25;12.13;;;;;;;29.24;35.34;100784.42;1548205;91;25822;-66
2022/10/31 12:06:17;;;;;;;19.17;12.58;;;;;;;29.19;35.82;100777.33;1567921;87;26460;-67
2022/10/31 12:08:45;;;;;;;18.60;12.82;;;;;;;29.30;35.68;100779.91;1647920;86;27061;-67
2022/10/31 12:11:41;;;;;;;16.80;12.68;;;;;;;29.38;35.58;100781.35;1651113;86;25769;-67
2022/10/31 12:14:18;;;;;;;15.78;11.85;;;;;;;28.88;34.80;100780.84;1649850;86;25771;-66
2022/10/31 12:17:16;;;;;;;18.87;13.10;;;;;;;28.39;35.48;100783.19;1650719;86;25769;-66
2022/10/31 12:20:19;;;;;;;22.15;13.03;;;;;;;28.19;36.12;100777.50;1651237;86;25754;-67
2022/10/31 12:23:18;;;;;;;16.93;12.95;;;;;;;28.25;36.49;100777.23;1649433;86;27555;-66
2022/10/31 12:26:02;;;;;;;20.23;13.45;;;;;;;27.95;35.98;100771.25;1655806;85;25815;-67
2022/10/31 12:28:43;;;;;;;20.00;11.57;;;;;;;27.50;36.64;100763.05;1655819;85;25744;-68
2022/10/31 12:31:18;;;;;;;18.75;11.93;;;;;;;27.66;37.56;100766.63;1655420;85;26376;-67
2022/10/31 12:34:04;;;;;;;15.55;11.65;;;;;;;27.89;37.83;100760.98;1715177;82;25643;-67
2022/10/31 12:37:02;;;;;;;16.20;10.80;;;;;;;28.06;37.58;100764.75;1725537;82;27538;-67
2022/10/31 12:39:49;;;;;;;;;;;;;;;28.12;37.03;100764.48;1706277;82;27341;-66
2022/10/31 12:42:33;;;;;;;22.35;13.88;;;;;;;28.04;36.91;100764.39;1669364;84;25892;-66
2022/10/31 12:45:36;;;;;;;18.20;10.98;;;;;;;27.83;37.06;100757.88;1672820;85;25845;-66
2022/10/31 12:48:51;;;;;;;20.48;11.70;;;;;;;27.71;37.33;100751.50;1687185;84;25467;-67
2022/10/31 12:51:35;;;;;;;18.55;12.07;;;;;;;27.68;37.55;100755.09;1648233;85;29651;-67
2022/10/31 12:54:13;;;;;;;16.35;10.98;;;;;;;27.71;37.40;100757.05;1653583;85;25764;-67
2022/10/31 12:57:14;;;;;;;17.65;11.10;;;;;;;27.68;37.25;100753.09;1640489;85;25636;-67
2022/10/31 12:59:51;;;;;;;22.15;11.18;;;;;;;27.56;37.31;100749.48;1666255;85;25889;-67
2022/10/31 13:02:31;;;;;;;15.45;11.33;;;;;;;27.37;37.49;100760.61;1677123;85;25670;-66
2022/10/31 13:05:18;;;;;;;20.95;11.12;;;;;;;27.33;37.53;100762.66;1649767;85;27554;-68
2022/10/31 13:07:58;;;;;;;18.37;11.63;;;;;;;27.22;37.62;100758.55;1657513;85;25580;-67
2022/10/31 13:10:35;;;;;;;18.73;10.80;;;;;;;27.22;37.90;100757.16;1657127;85;25665;-66
2022/10/31 13:13:18;;;;;;;18.90;10.25;;;;;;;27.24;37.85;100749.81;1653992;85;25712;-68
2022/10/31 13:15:53;;;;;;;18.92;11.20;;;;;;;27.17;38.26;100746.51;1655400;86;25621;-65
2022/10/31 13:18:33;;;;;;;19.20;10.68;;;;;;;27.05;37.88;100751.97;1654713;84;27050;-65
2022/10/31 13:21:04;;;;;;;23.90;16.07;;;;;;;26.88;38.25;100752.33;1655338;84;25662;-64
2022/10/31 13:23:39;;;;;;;18.27;11.48;;;;;;;26.76;38.27;100745.90;1655581;86;25727;-65
2022/10/31 13:26:13;;;;;;;14.55;9.53;;;;;;;26.68;38.56;100749.35;1655644;85;25635;-64
2022/10/31 13:29:04;;;;;;;23.62;12.53;;;;;;;26.63;38.91;100740.86;1663056;85;25677;-66
2022/10/31 13:31:31;;;;;;;18.10;10.82;;;;;;;26.55;38.70;100745.45;1659721;85;29709;-65
2022/10/31 13:34:02;;;;;;;19.50;13.00;;;;;;;26.41;38.93;100740.81;1670365;85;25674;-67
2022/10/31 13:36:43;;;;;;;16.25;10.40;;;;;;;26.32;38.82;100743.23;1674436;84;25757;-66
2022/10/31 13:39:48;;;;;;;15.95;9.58;;;;;;;26.16;39.09;100746.51;1602106;89;25695;-64
2022/10/31 13:42:37;;;;;;;11.25;9.03;;;;;;;25.98;39.21;100746.59;1607434;89;25718;-65
2022/10/31 13:45:17;;;;;;;12.58;8.78;;;;;;;25.63;39.43;100746.93;1576727;90;27740;-65
2022/10/31 13:48:03;;;;;;;17.02;9.58;;;;;;;25.47;39.98;100750.13;1613093;88;25673;-66
2022/10/31 13:50:32;;;;;;;20.40;9.13;;;;;;;25.30;40.23;100747.60;1610757;88;25773;-66
2022/10/31 13:53:21;;;;;;;15.35;9.20;;;;;;;24.97;40.44;100746.24;1599310;86;27743;-66
2022/10/31 13:56:10;;;;;;;81.35;68.47;;;;;;;24.69;40.53;100749.02;1585457;90;26345;-66
2022/10/31 13:58:36;;;;;;;23.57;13.88;;;;;;;24.36;41.14;100755.86;1580569;90;27544;-66
2022/10/31 14:01:14;;;;;;;17.55;8.68;;;;;;;23.97;41.73;100745.53;1582165;90;27421;-66
2022/10/31 14:03:44;;;;;;;16.52;9.75;;;;;;;23.74;42.20;100748.56;1582621;90;25828;-65
2022/10/31 14:06:12;;;;;;;15.20;8.75;;;;;;;23.43;42.46;100748.02;1582112;90;26023;-65
2022/10/31 14:08:44;;;;;;;13.93;8.28;;;;;;;23.13;42.82;100750.98;1581897;90;25775;-67
2022/10/31 14:11:21;;;;;;;13.88;8.95;;;;;;;22.87;43.09;100751.36;1584985;90;27693;-66
2022/10/31 14:13:48;;;;;;;14.58;8.93;;;;;;;22.58;43.48;100742.06;1579133;90;25873;-65
2022/10/31 14:16:23;;;;;;;13.62;8.48;;;;;;;22.22;43.83;100733.98;1603393;87;25770;-66
2022/10/31 14:19:03;;;;;;;11.40;7.55;;;;;;;21.90;44.31;100737.20;1655549;85;25785;-67
2022/10/31 14:21:38;;;;;;;79.75;74.42;;;;;;;21.58;44.89;100739.73;1656206;85;25753;-69
2022/10/31 14:24:25;;;;;;;78.85;72.55;;;;;;;21.33;45.26;100738.58;1656086;85;27982;-67
2022/10/31 14:27:11;;;;;;;80.30;74.72;;;;;;;21.04;46.16;100737.59;1656175;86;25638;-67
2022/10/31 14:29:37;;;;;;;84.17;77.92;;;;;;;20.72;46.51;100727.43;1546686;91;25883;-67
2022/10/31 14:32:15;;;;;;;79.22;73.40;;;;;;;20.46;47.02;100731.68;1565981;91;25831;-68
2022/10/31 14:34:52;;;;;;;81.70;75.75;;;;;;;20.19;47.41;100725.30;1576310;91;25898;-67
2022/10/31 14:37:40;;;;;;;80.87;75.55;;;;;;;19.92;47.95;100730.70;1587226;89;27517;-68
2022/10/31 14:40:52;;;;;;;82.53;77.05;;;;;;;19.68;48.41;100737.80;1543420;91;25732;-67
2022/10/31 14:43:35;;;;;;;79.37;73.62;;;;;;;19.37;49.35;100740.86;1551184;91;25555;-67
2022/10/31 14:46:16;;;;;;;78.30;72.78;;;;;;;19.02;49.70;100734.80;1577721;89;25784;-67
2022/10/31 14:49:13;;;;;;;84.32;78.00;;;;;;;18.77;50.45;100737.69;1569460;89;25808;-68
2022/10/31 14:51:44;;;;;;;82.92;76.82;;;;;;;18.55;51.57;100738.30;1592126;89;27605;-67
2022/10/31 14:54:15;;;;;;;80.17;74.22;;;;;;;18.25;52.21;100739.50;1570865;87;29540;-68
2022/10/31 14:56:52;;;;;;;81.92;75.97;;;;;;;18.03;52.45;100736.75;1557469;91;26061;-68
2022/10/31 14:59:24;;;;;;;81.02;74.82;;;;;;;17.81;52.70;100739.42;1549786;91;26741;-69
2022/10/31 15:02:02;;;;;;;84.80;78.55;;;;;;;17.60;53.85;100732.73;1562626;91;25768;-69
2022/10/31 15:04:32;;;;;;;80.22;74.17;;;;;;;17.40;53.30;100735.87;1558045;91;27579;-69
2022/10/31 15:07:20;;;;;;;81.20;74.55;;;;;;;17.20;54.97;100733.50;1583864;88;25828;-67
2022/10/31 15:10:00;;;;;;;80.87;74.55;;;;;;;16.84;56.39;100732.89;1613788;88;25659;-68
2022/10/31 15:12:31;;;;;;;87.82;81.50;;;;;;;16.84;56.39;100732.89;1610653;87;25737;-65
2022/10/31 15:14:58;;;;;;;82.80;76.45;;;;;;;16.65;56.46;100739.70;1604208;87;25475;-67
2022/10/31 15:17:26;;;;;;;79.92;74.22;;;;;;;16.49;57.34;100732.73;1597874;88;28262;-68
2022/10/31 15:19:53;;;;;;;74.58;68.70;;;;;;;16.32;57.94;100736.45;1616463;87;25737;-66
2022/10/31 15:22:23;;;;;;;87.75;81.10;;;;;;;16.18;58.36;100747.66;1604817;88;25682;-66
2022/10/31 15:24:56;;;;;;;88.00;81.40;;;;;;;16.01;58.36;100748.63;1586147;89;25685;-68
2022/10/31 15:27:23;;;;;;;80.83;74.25;;;;;;;15.85;58.43;100751.17;1609795;89;25706;-67
2022/10/31 15:29:56;;;;;;;89.90;83.25;;;;;;;15.76;59.77;100752.36;1610095;89;27504;-67
2022/10/31 15:32:25;;;;;;;88.80;81.85;;;;;;;15.57;59.94;100755.52;1602484;89;26269;-67
2022/10/31 15:34:53;;;;;;;90.03;83.35;;;;;;;15.41;60.90;100759.37;1602558;88;25701;-67
2022/10/31 15:37:24;;;;;;;89.10;82.40;;;;;;;15.22;61.29;100750.27;1606731;89;25796;-67
2022/10/31 15:39:52;;;;;;;93.10;85.17;;;;;;;15.04;61.68;100753.09;1609712;89;26312;-66
2022/10/31 15:42:23;;;;;;;88.50;81.40;;;;;;;14.88;62.22;100748.77;1602372;89;27515;-66
2022/10/31 15:45:06;;;;;;;94.10;86.60;;;;;;;14.74;62.60;100751.70;1600076;88;25911;-66
2022/10/31 15:47:33;;;;;;;124.60;113.32;;;;;;;14.60;62.53;100757.11;1609887;89;25507;-68
2022/10/31 15:50:02;;;;;;;32.63;18.20;;;;;;;14.45;63.47;100757.81;1611572;88;25795;-67
2022/10/31 15:52:39;;;;;;;93.62;86.67;;;;;;;14.31;63.83;100757.22;1599029;85;25759;-66
2022/10/31 15:55:15;;;;;;;66.60;60.83;;;;;;;14.19;63.93;100761.95;1604639;88;27517;-65
2022/10/31 16:00:35;;;;;;;92.62;84.60;;;;;;;13.96;64.86;100762.13;1669314;85;25838;-66
2022/10/31 16:03:17;;;;;;;69.90;63.17;;;;;;;;;;1662572;85;26052;-68
2022/10/31 16:05:53;;;;;;;33.05;21.60;;;;;;;;;;1644366;85;28978;-68
2022/10/31 16:08:32;;;;;;;28.77;18.90;;;;;;;;;;1657127;85;28041;-66
2022/10/31 16:11:09;;;;;;;27.20;17.50;;;;;;;;;;1652770;85;25487;-65
2022/10/31 16:13:37;;;;;;;30.45;18.67;;;;;;;;;;1662645;85;25495;-65
2022/10/31 16:16:11;;;;;;;29.10;18.20;;;;;;;;;;1665288;85;25658;-66
2022/10/31 16:18:39;;;;;;;32.13;18.95;;;;;;;;;;1657587;85;25416;-65
2022/10/31 16:21:08;;;;;;;27.98;18.02;;;;;;;;;;1662202;85;27313;-63
2022/10/31 16:23:36;;;;;;;87.05;80.10;;;;;;;;;;1666045;85;25733;-63
2022/10/31 16:26:07;;;;;;;95.03;87.20;;;;;;;;;;1691716;84;25570;-64
2022/10/31 16:28:35;;;;;;;94.85;87.22;;;;;;;;;;1690867;84;25979;-66
2022/10/31 16:31:06;;;;;;;100.42;91.80;;;;;;;;;;1687604;84;25596;-64
2022/10/31 16:33:36;;;;;;;79.58;72.87;;;;;;;;;;1674128;85;27496;-65
2022/10/31 16:36:31;;;;;;;96.50;88.85;;;;;;;;;;1668173;84;25645;-66
2022/10/31 16:38:58;;;;;;;23.07;13.75;;;;;;;;;;1652986;85;26271;-65
2022/10/31 16:41:25;;;;;;;32.45;16.62;;;;;;;;;;1659242;85;25637;-65
2022/10/31 16:43:53;;;;;;;95.40;86.87;;;;;;;;;;1690903;84;25673;-66
2022/10/31 16:46:26;;;;;;;98.00;89.45;;;;;;;;;;1671206;85;25814;-65
2022/10/31 16:48:53;;;;;;;101.47;92.55;;;;;;;;;;1694918;84;25692;-66
2022/10/31 16:51:20;;;;;;;38.23;21.07;;;;;;;;;;1702163;84;25637;-65
2022/10/31 16:53:47;;;;;;;40.67;22.45;;;;;;;;;;1689534;82;25559;-67
2022/10/31 16:56:18;;;;;;;103.25;94.32;;;;;;;;;;1705877;83;25569;-65
2022/10/31 16:58:45;;;;;;;12.45;11.88;;;;;;;;;;1704958;82;27541;-66
2022/10/31 17:01:13;;;;;;;67.20;61.18;;;;;;;;;;1701465;83;25557;-66
2022/10/31 17:03:40;;;;;;;47.50;43.10;;;;;;;;;;1701637;83;35141;-67
2022/10/31 17:06:11;;;;;;;12.40;11.80;;;;;;;;;;1701263;83;27666;-66
2022/10/31 17:08:38;;;;;;;4.90;4.75;;;;;;;;;;1701188;83;25674;-68
2022/10/31 17:11:05;;;;;;;6.42;5.65;;;;;;;;;;1676092;84;27380;-66
2022/10/31 17:13:33;;;;;;;59.67;27.02;;;;;;;;;;1700197;84;25582;-66
2022/10/31 17:16:02;;;;;;;66.65;28.90;;;;;;;;;;1696285;84;25628;-67
2022/10/31 17:18:29;;;;;;;76.82;29.90;;;;;;;;;;1697605;84;25531;-66
2022/10/31 17:20:59;;;;;;;111.80;95.77;;;;;;;;;;1700090;83;25416;-65
2022/10/31 17:23:27;;;;;;;108.95;96.55;;;;;;;;;;1703434;83;27343;-66
2022/10/31 17:25:55;;;;;;;114.00;97.55;;;;;;;;;;1702085;83;25947;-66
2022/10/31 17:28:22;;;;;;;111.55;93.30;;;;;;;;;;1700989;83;25778;-65
2022/10/31 17:30:49;;;;;;;6.03;5.78;;;;;;;;;;1700883;83;26221;-65
2022/10/31 19:18:40;;;;;;;82.67;37.30;;;;;;;12.57;80.39;100789.64;1823020;77;25878;-67
2022/10/31 19:21:09;;;;;;;72.05;32.48;;;;;;;12.46;80.64;100784.22;1790579;79;25700;-68
2022/10/31 19:23:35;;;;;;;77.80;34.63;;;;;;;12.43;80.93;100780.76;1813786;78;27527;-67
2022/10/31 19:26:03;;;;;;;80.10;33.28;;;;;;;12.42;81.14;100783.25;1788473;79;27307;-69
2022/10/31 19:28:31;;;;;;;80.17;34.53;;;;;;;12.36;81.24;100781.75;1795998;79;25536;-69
2022/10/31 19:30:58;;;;;;;80.40;34.50;;;;;;;12.32;81.52;100781.58;1802043;79;25639;-68
2022/10/31 19:33:28;;;;;;;81.90;36.13;;;;;;;12.27;81.59;100778.42;1781731;80;25768;-69
2022/10/31 19:36:00;;;;;;;79.25;34.90;;;;;;;12.24;81.86;100781.77;1803393;79;28048;-67
2022/10/31 19:38:28;;;;;;;84.62;35.13;;;;;;;12.21;82.01;100785.09;1780605;80;25711;-68
2022/10/31 19:41:08;;;;;;;78.62;35.85;;;;;;;12.16;82.50;100782.51;1760848;80;25673;-68
2022/10/31 19:43:34;;;;;;;84.42;35.88;;;;;;;12.11;82.56;100780.70;1785814;79;25672;-65
2022/10/31 19:46:03;;;;;;;73.20;33.53;;;;;;;12.06;82.77;100777.33;1791528;79;25765;-66
2022/10/31 19:48:30;;;;;;;81.80;33.75;;;;;;;12.05;83.03;100783.84;1717364;82;27525;-65
2022/10/31 19:51:04;;;;;;;73.85;31.93;;;;;;;12.01;83.24;100773.38;1745183;82;25676;-66
2022/10/31 19:53:31;;;;;;;76.02;32.67;;;;;;;11.98;83.48;100778.05;1759072;80;25740;-67
2022/10/31 19:55:59;;;;;;;79.95;33.78;;;;;;;11.99;83.59;100779.10;1743073;81;25693;-66
2022/10/31 19:58:25;;;;;;;85.75;34.15;;;;;;;11.95;83.83;100782.98;1712862;82;25897;-66
2022/10/31 20:00:52;;;;;;;87.97;35.08;;;;;;;11.94;84.07;100781.37;1731201;82;27554;-66
2022/10/31 20:03:18;;;;;;;80.15;34.15;;;;;;;11.95;84.28;100782.16;1752092;81;25734;-65
2022/10/31 20:05:45;;;;;;;84.95;35.85;;;;;;;11.95;84.48;100779.45;1732069;81;25793;-64
2022/10/31 20:08:18;;;;;;;88.90;36.85;;;;;;;11.95;84.65;100782.98;1731051;82;25574;-64
2022/10/31 20:11:00;;;;;;;81.15;34.75;;;;;;;11.95;84.85;100774.84;1731776;81;25722;-64
2022/10/31 20:13:30;;;;;;;88.55;36.58;;;;;;;11.96;84.88;100778.35;1741851;81;27387;-64
2022/10/31 20:16:03;;;;;;;95.30;39.00;;;;;;;11.98;84.93;100775.34;1759558;81;26324;-64
2022/10/31 20:18:30;;;;;;;84.05;38.08;;;;;;;11.99;84.96;100769.61;1712009;81;25696;-64
2022/10/31 20:21:18;;;;;;;88.00;38.95;;;;;;;12.00;84.92;100760.92;1677408;84;25789;-64
2022/10/31 20:23:46;;;;;;;84.33;35.57;;;;;;;11.97;84.76;100760.99;1764495;80;25446;-64
2022/10/31 20:26:18;;;;;;;82.47;35.90;;;;;;;11.92;84.57;100751.06;1763166;80;27551;-63
2022/10/31 20:28:45;;;;;;;80.87;38.30;;;;;;;11.91;84.82;100752.16;1746435;80;25523;-62
2022/10/31 20:31:17;;;;;;;83.70;36.68;;;;;;;11.89;84.77;100757.06;1738420;80;25589;-63
2022/10/31 20:33:44;;;;;;;86.63;36.60;;;;;;;11.88;84.90;100750.58;1745273;81;25460;-65
2022/10/31 20:36:11;;;;;;;86.15;36.28;;;;;;;11.86;84.91;100753.59;1736539;80;25710;-63
2022/10/31 20:38:39;;;;;;;87.27;34.55;;;;;;;11.83;84.88;100754.77;1734414;80;28152;-63
2022/10/31 20:41:09;;;;;;;76.92;33.13;;;;;;;11.79;84.77;100754.58;1762181;80;25540;-63
2022/10/31 20:43:35;;;;;;;;;;;;;;;11.77;84.84;100755.45;1753494;80;25531;-64
2022/10/31 20:46:12;;;;;;;69.77;32.88;;;;;;;11.73;84.74;100748.48;1763601;80;25633;-63
2022/10/31 20:48:39;;;;;;;76.25;34.10;;;;;;;11.68;84.67;100750.48;1737666;80;25665;-63
2022/10/31 20:51:15;;;;;;;74.70;34.92;;;;;;;11.64;84.79;100753.00;1759157;80;27459;-64
2022/10/31 20:53:41;;;;;;;76.37;33.50;;;;;;;11.61;84.88;100746.84;1765091;80;25974;-64
2022/10/31 20:56:12;;;;;;;77.08;35.95;;;;;;;11.59;84.97;100755.30;1753366;80;25675;-63
2022/10/31 20:58:40;;;;;;;77.22;35.48;;;;;;;11.56;84.99;100753.19;1733872;81;26657;-63
2022/10/31 21:01:14;;;;;;;75.32;31.55;;;;;;;11.55;84.99;100746.72;1736019;81;25727;-63
2022/10/31 21:03:41;;;;;;;71.17;32.98;;;;;;;11.56;85.10;100753.72;1740856;81;27820;-63
2022/10/31 21:06:08;;;;;;;80.42;33.63;;;;;;;11.54;84.91;100754.05;1733832;81;25544;-64
2022/10/31 21:08:35;;;;;;;73.52;33.85;;;;;;;11.54;85.18;100759.47;1733063;81;25651;-63
2022/10/31 21:11:10;;;;;;;71.40;33.05;;;;;;;11.52;85.22;100752.73;1768570;80;25376;-62
2022/10/31 21:13:38;;;;;;;74.80;33.98;;;;;;;11.52;85.43;100756.23;1768140;80;25582;-63
2022/10/31 21:16:10;;;;;;;74.95;34.03;;;;;;;11.52;85.56;100756.23;1771329;79;27524;-63
2022/10/31 21:18:39;;;;;;;82.97;33.80;;;;;;;11.52;85.67;100757.59;1776248;79;27319;-62
2022/10/31 21:21:16;;;;;;;71.00;32.30;;;;;;;11.53;85.65;100757.06;1797930;79;25670;-63
2022/10/31 21:23:43;;;;;;;74.87;33.88;;;;;;;11.51;85.52;100753.83;1762494;80;25922;-62
2022/10/31 21:26:22;;;;;;;81.17;34.53;;;;;;;11.48;85.55;100754.45;1777261;79;25536;-62
2022/10/31 21:28:53;;;;;;;83.37;37.03;;;;;;;11.48;85.55;100750.40;1778007;80;27551;-63
2022/10/31 21:31:19;;;;;;;78.40;37.98;;;;;;;11.47;85.59;100756.91;1777463;79;25763;-64
2022/10/31 21:33:46;;;;;;;82.90;36.85;;;;;;;11.48;85.83;100754.45;1776837;79;25710;-64
2022/10/31 21:36:13;;;;;;;92.88;39.53;;;;;;;11.49;85.85;100750.62;1778001;80;25686;-63
2022/10/31 21:38:41;;;;;;;129.25;61.37;;;;;;;11.51;85.95;100747.05;1771519;80;25473;-63
2022/10/31 21:41:14;;;;;;;87.37;37.48;;;;;;;11.53;86.08;100747.02;1778451;80;28223;-64
2022/10/31 21:43:43;;;;;;;79.22;35.25;;;;;;;11.56;86.00;100744.23;1790758;79;25558;-63
2022/10/31 21:46:19;;;;;;;81.97;35.38;;;;;;;11.55;85.73;100740.73;1787114;79;25443;-64
2022/10/31 21:48:47;;;;;;;77.95;32.95;;;;;;;11.55;85.66;100736.67;1778387;80;25682;-65
2022/10/31 21:51:23;;;;;;;79.97;34.33;;;;;;;11.52;85.56;100737.84;1800330;79;25723;-66
2022/10/31 21:56:36;;;;;;;73.02;33.08;;;;;;;11.51;85.76;100732.98;1789732;79;25616;-63
2022/10/31 21:59:04;;;;;;;83.50;33.83;;;;;;;11.51;85.82;100733.52;1777515;80;25955;-66
2022/10/31 22:01:31;;;;;;;83.62;34.03;;;;;;;11.54;86.03;100726.95;1739970;80;25830;-65
2022/10/31 22:03:58;;;;;;;81.28;33.83;;;;;;;11.55;86.09;100727.75;1776670;80;25621;-65
2022/10/31 22:06:28;;;;;;;87.70;35.03;;;;;;;11.57;86.15;100735.81;1776839;79;27562;-64
2022/10/31 22:08:57;;;;;;;86.90;35.43;;;;;;;11.55;85.85;100723.12;1786799;79;26276;-65
2022/10/31 22:11:23;;;;;;;85.80;35.35;;;;;;;11.55;85.91;100724.48;1776929;80;25755;-64
2022/10/31 22:13:50;;;;;;;85.77;33.75;;;;;;;11.55;86.17;100725.83;1776733;79;25729;-65
2022/10/31 22:16:20;;;;;;;76.57;33.58;;;;;;;11.55;86.03;100719.63;1787589;79;25681;-64
2022/10/31 22:18:49;;;;;;;78.42;33.10;;;;;;;11.53;86.03;100722.63;1780677;79;27556;-64
2022/10/31 22:21:19;;;;;;;79.53;33.73;;;;;;;11.52;86.12;100714.81;1767564;79;25812;-64
2022/10/31 22:23:58;;;;;;;76.97;31.30;;;;;;;11.49;86.18;100720.30;1767418;80;25678;-64
2022/10/31 22:26:26;;;;;;;72.63;32.83;;;;;;;11.50;86.23;100725.16;1770943;80;25697;-64
2022/10/31 22:28:56;;;;;;;74.75;31.55;;;;;;;11.49;86.49;100720.83;1779326;79;25637;-65
2022/10/31 22:31:24;;;;;;;77.15;32.60;;;;;;;11.48;86.63;100722.75;1779865;79;28142;-65
2022/10/31 22:33:52;;;;;;;71.95;30.65;;;;;;;11.47;86.70;100717.63;1769686;79;25770;-65
2022/10/31 22:36:22;;;;;;;75.70;30.80;;;;;;;11.45;86.68;100712.52;1769675;80;25697;-65
2022/10/31 22:38:49;;;;;;;73.62;30.37;;;;;;;11.44;86.82;100716.34;1781605;79;25373;-65
2022/10/31 22:41:31;;;;;;;73.62;31.50;;;;;;;11.44;86.97;100710.11;1772523;79;25440;-66
2022/10/31 22:43:58;;;;;;;184.07;94.17;;;;;;;11.45;87.09;100715.22;1768309;80;27520;-66
2022/10/31 22:46:32;;;;;;;99.85;45.08;;;;;;;11.44;87.02;100711.46;1789814;79;25629;-66
2022/10/31 22:49:03;;;;;;;77.45;30.27;;;;;;;11.43;87.21;100709.88;1769616;80;25617;-66
2022/10/31 22:51:33;;;;;;;81.65;31.50;;;;;;;11.43;87.28;100705.81;1765726;80;25402;-66
2022/10/31 22:54:00;;;;;;;71.42;29.37;;;;;;;11.41;87.38;100707.47;1770072;80;25459;-66
2022/10/31 22:56:31;;;;;;;73.10;30.68;;;;;;;11.39;87.50;100702.88;1769983;79;27569;-66
2022/10/31 22:58:59;;;;;;;71.95;29.70;;;;;;;11.36;87.54;100706.22;1768732;79;27372;-66
2022/10/31 23:01:29;;;;;;;69.50;29.23;;;;;;;11.38;87.88;100710.78;1771701;80;25367;-65
2022/10/31 23:03:56;;;;;;;64.05;29.07;;;;;;;11.38;88.03;100703.45;1771910;80;25606;-66
2022/10/31 23:06:26;;;;;;;70.22;29.87;;;;;;;11.39;88.09;100705.06;1769665;80;25619;-66
2022/10/31 23:08:53;;;;;;;78.78;31.12;;;;;;;11.39;88.28;100701.53;1774309;80;27544;-66
2022/10/31 23:11:32;;;;;;;79.07;33.60;;;;;;;11.42;88.54;100697.42;1772161;79;25625;-66
2022/10/31 23:14:15;;;;;;;87.17;28.75;;;;;;;11.42;88.52;100693.36;1767862;80;25386;-65
2022/10/31 23:16:52;;;;;;;71.42;29.40;;;;;;;11.43;88.58;100697.69;1784104;79;25615;-65
2022/10/31 23:19:26;;;;;;;76.75;31.48;;;;;;;11.40;88.40;100701.79;1784362;79;25524;-65
2022/10/31 23:22:01;;;;;;;69.05;29.82;;;;;;;11.41;88.61;100691.22;1792598;79;27489;-65
2022/10/31 23:24:41;;;;;;;79.80;31.07;;;;;;;11.39;88.64;100698.29;1799976;79;25506;-65